createdAt,value
2019-04-10T00:01:53.636Z,9.80
2019-04-10T00:04:23.049Z,9.90
2019-04-10T00:06:52.215Z,9.90
2019-04-10T00:09:21.049Z,10.00
2019-04-10T00:11:49.989Z,9.90
2019-04-10T00:14:18.601Z,9.90
2019-04-10T00:16:47.269Z,9.90
2019-04-10T00:19:15.751Z,10.00
2019-04-10T00:21:45.159Z,9.90
2019-04-10T00:24:13.842Z,9.90
2019-04-10T00:26:42.316Z,9.90
2019-04-10T00:29:10.753Z,9.80
2019-04-10T00:31:40.210Z,9.80
2019-04-10T00:34:09.441Z,9.80
2019-04-10T00:36:38.202Z,9.90
2019-04-10T00:39:08.626Z,9.90
2019-04-10T00:41:38.386Z,10.00
2019-04-10T00:44:07.821Z,10.00
2019-04-10T00:46:36.756Z,10.00
2019-04-10T00:49:05.232Z,10.00
2019-04-10T00:51:33.725Z,10.00
2019-04-10T00:54:02.229Z,10.00
2019-04-10T00:56:30.689Z,10.00
2019-04-10T00:58:59.739Z,10.00
2019-04-10T01:01:28.196Z,10.00
2019-04-10T01:03:56.670Z,10.00
2019-04-10T01:06:26.181Z,10.00
2019-04-10T01:08:55.213Z,10.00
2019-04-10T01:11:23.703Z,10.00
2019-04-10T01:13:53.617Z,10.00
2019-04-10T01:16:23.100Z,9.90
2019-04-10T01:18:51.676Z,9.90
2019-04-10T01:21:20.192Z,9.80
2019-04-10T01:23:49.107Z,9.80
2019-04-10T01:26:17.704Z,9.80
2019-04-10T01:28:47.102Z,9.80
2019-04-10T01:31:17.072Z,9.80
2019-04-10T01:33:46.428Z,9.80
2019-04-10T01:36:15.976Z,9.80
2019-04-10T01:38:44.547Z,9.80
2019-04-10T01:41:13.044Z,9.80
2019-04-10T01:43:41.471Z,9.80
2019-04-10T01:46:10.311Z,9.80
2019-04-10T01:48:39.728Z,9.80
2019-04-10T01:51:08.715Z,9.80
2019-04-10T01:53:37.688Z,9.80
2019-04-10T01:56:20.452Z,9.70
2019-04-10T01:58:37.654Z,9.80
2019-04-10T02:01:08.101Z,9.70
2019-04-10T02:03:40.378Z,9.70
2019-04-10T02:06:09.222Z,9.70
2019-04-10T02:08:38.236Z,9.60
2019-04-10T02:11:07.270Z,9.60
2019-04-10T02:13:36.083Z,9.60
2019-04-10T02:16:04.758Z,9.60
2019-04-10T02:18:33.257Z,9.60
2019-04-10T02:21:01.695Z,9.60
2019-04-10T02:23:30.239Z,9.60
2019-04-10T02:25:58.785Z,9.50
2019-04-10T02:28:27.255Z,9.50
2019-04-10T02:30:56.685Z,9.50
2019-04-10T02:33:25.517Z,9.50
2019-04-10T02:35:56.993Z,9.50
2019-04-10T02:38:40.092Z,9.40
2019-04-10T02:40:57.390Z,9.40
2019-04-10T02:43:27.287Z,9.40
2019-04-10T02:45:56.312Z,9.30
2019-04-10T02:48:27.479Z,9.30
2019-04-10T02:50:57.594Z,9.40
2019-04-10T02:53:27.628Z,9.40
2019-04-10T02:55:58.154Z,9.40
2019-04-10T02:58:26.977Z,9.30
2019-04-10T03:00:56.306Z,9.30
2019-04-10T03:03:25.490Z,9.30
2019-04-10T03:05:54.369Z,9.30
2019-04-10T03:08:37.123Z,9.30
2019-04-10T03:10:59.068Z,9.30
2019-04-10T03:13:23.920Z,9.30
2019-04-10T03:15:53.564Z,9.30
2019-04-10T03:18:22.998Z,9.40
2019-04-10T03:20:51.624Z,9.40
2019-04-10T03:23:21.058Z,9.40
2019-04-10T03:25:50.911Z,9.30
2019-04-10T03:28:19.555Z,9.30
2019-04-10T03:30:49.315Z,9.30
2019-04-10T03:33:31.093Z,9.20
2019-04-10T03:35:59.055Z,9.20
2019-04-10T03:38:27.495Z,9.20
2019-04-10T03:40:55.952Z,9.20
2019-04-10T03:43:24.438Z,9.20
2019-04-10T03:45:53.005Z,9.20
2019-04-10T03:48:21.482Z,9.20
2019-04-10T03:50:50.198Z,9.30
2019-04-10T03:53:20.164Z,9.30
2019-04-10T03:55:49.415Z,9.30
2019-04-10T03:58:19.679Z,9.30
2019-04-10T04:00:48.518Z,9.30
2019-04-10T04:03:18.292Z,9.30
2019-04-10T04:05:47.091Z,9.30
2019-04-10T04:08:15.539Z,9.30
2019-04-10T04:10:44.705Z,9.20
2019-04-10T04:13:13.410Z,9.20
2019-04-10T04:15:42.158Z,9.20
2019-04-10T04:18:10.976Z,9.10
2019-04-10T04:20:39.974Z,9.10
2019-04-10T04:23:09.310Z,9.10
2019-04-10T04:25:38.677Z,9.20
2019-04-10T04:28:07.182Z,9.10
2019-04-10T04:30:36.040Z,9.10
2019-04-10T04:33:04.853Z,9.10
2019-04-10T04:35:33.313Z,9.10
2019-04-10T04:38:02.549Z,9.10
2019-04-10T04:40:31.194Z,9.10
2019-04-10T04:43:00.149Z,9.10
2019-04-10T04:45:28.693Z,9.10
2019-04-10T04:47:57.626Z,9.10
2019-04-10T04:50:27.062Z,9.10
2019-04-10T04:52:55.683Z,9.00
2019-04-10T04:55:24.124Z,9.10
2019-04-10T04:57:53.479Z,9.10
2019-04-10T05:00:22.143Z,9.10
2019-04-10T05:02:55.722Z,9.10
2019-04-10T05:05:25.237Z,9.10
2019-04-10T05:07:59.327Z,9.00
2019-04-10T05:10:25.129Z,9.00
2019-04-10T05:12:54.047Z,9.00
2019-04-10T05:15:22.679Z,9.00
2019-04-10T05:17:51.802Z,9.00
2019-04-10T05:20:20.285Z,9.00
2019-04-10T05:22:49.214Z,9.00
2019-04-10T05:25:19.042Z,8.90
2019-04-10T05:27:49.022Z,8.90
2019-04-10T05:30:18.387Z,8.90
2019-04-10T05:32:47.316Z,8.90
2019-04-10T05:35:16.995Z,8.90
2019-04-10T05:37:46.293Z,8.80
2019-04-10T05:40:15.259Z,8.90
2019-04-10T05:42:44.971Z,8.90
2019-04-10T05:45:14.846Z,8.90
2019-04-10T05:47:44.455Z,8.90
2019-04-10T05:50:13.090Z,8.90
2019-04-10T05:52:41.532Z,8.90
2019-04-10T05:55:10.314Z,8.90
2019-04-10T05:57:38.908Z,9.00
2019-04-10T06:00:10.411Z,9.10
2019-04-10T06:02:39.821Z,9.20
2019-04-10T06:05:09.763Z,9.30
2019-04-10T06:07:38.307Z,9.30
2019-04-10T06:10:10.553Z,9.40
2019-04-10T06:12:39.552Z,9.50
2019-04-10T06:15:08.815Z,9.60
2019-04-10T06:17:38.468Z,9.70
2019-04-10T06:20:09.178Z,9.80
2019-04-10T06:22:38.868Z,9.80
2019-04-10T06:25:11.109Z,9.90
2019-04-10T06:27:40.819Z,10.10
2019-04-10T06:30:10.070Z,10.10
2019-04-10T06:32:39.644Z,10.20
2019-04-10T06:35:09.186Z,10.20
2019-04-10T06:37:38.108Z,10.30
2019-04-10T06:40:16.425Z,10.50
2019-04-10T06:42:46.172Z,10.60
2019-04-10T06:45:09.690Z,10.70
2019-04-10T06:47:39.903Z,10.90
2019-04-10T06:50:10.570Z,11.00
2019-04-10T06:52:39.278Z,11.10
2019-04-10T06:55:09.191Z,11.20
2019-04-10T06:57:46.872Z,11.30
2019-04-10T07:00:13.718Z,11.30
2019-04-10T07:02:41.093Z,11.40
2019-04-10T07:05:12.408Z,11.50
2019-04-10T07:07:50.915Z,11.50
2019-04-10T07:10:22.530Z,11.60
2019-04-10T07:12:42.074Z,11.50
2019-04-10T07:15:12.463Z,11.50
2019-04-10T07:17:41.867Z,11.60
2019-04-10T07:20:15.018Z,11.60
2019-04-10T07:22:46.536Z,11.70
2019-04-10T07:25:14.290Z,11.80
2019-04-10T07:27:44.071Z,11.80
2019-04-10T07:30:13.994Z,12.00
2019-04-10T07:32:47.173Z,12.00
2019-04-10T07:35:19.268Z,12.00
2019-04-10T07:37:44.817Z,11.90
2019-04-10T07:40:14.354Z,12.10
2019-04-10T07:42:43.383Z,12.20
2019-04-10T07:45:13.004Z,12.40
2019-04-10T07:47:42.020Z,12.50
2019-04-10T07:50:12.195Z,12.60
2019-04-10T07:52:41.415Z,12.60
2019-04-10T07:55:10.847Z,12.70
2019-04-10T07:57:40.503Z,12.80
2019-04-10T08:00:11.310Z,12.80
2019-04-10T08:02:40.576Z,12.80
2019-04-10T08:05:10.211Z,12.80
2019-04-10T08:07:39.305Z,12.90
2019-04-10T08:10:10.116Z,12.90
2019-04-10T08:12:45.992Z,13.10
2019-04-10T08:15:09.424Z,13.30
2019-04-10T08:17:38.870Z,13.40
2019-04-10T08:20:09.899Z,13.60
2019-04-10T08:22:39.341Z,13.60
2019-04-10T08:25:08.965Z,13.60
2019-04-10T08:27:38.465Z,13.60
2019-04-10T08:30:10.779Z,13.60
2019-04-10T08:32:50.829Z,13.50
2019-04-10T08:35:09.199Z,13.30
2019-04-10T08:37:38.925Z,13.30
2019-04-10T08:40:11.420Z,13.20
2019-04-10T08:42:43.438Z,13.20
2019-04-10T08:45:11.344Z,13.10
2019-04-10T08:47:40.168Z,12.90
2019-04-10T08:50:09.763Z,13.00
2019-04-10T08:52:39.084Z,13.10
2019-04-10T08:55:10.005Z,13.20
2019-04-10T08:57:38.842Z,13.40
2019-04-10T09:00:10.062Z,13.40
2019-04-10T09:02:38.786Z,13.50
2019-04-10T09:05:09.252Z,13.70
2019-04-10T09:07:38.283Z,13.90
2019-04-10T09:10:07.302Z,14.00
2019-04-10T09:12:35.760Z,14.10
2019-04-10T09:15:05.957Z,14.20
2019-04-10T09:17:35.430Z,14.10
2019-04-10T09:20:06.642Z,14.10
2019-04-10T09:22:55.162Z,14.10
2019-04-10T09:25:07.032Z,14.10
2019-04-10T09:27:35.940Z,14.20
2019-04-10T09:30:07.239Z,14.30
2019-04-10T09:32:36.790Z,14.20
2019-04-10T09:35:08.730Z,14.10
2019-04-10T09:37:37.959Z,14.00
2019-04-10T09:40:08.465Z,14.00
2019-04-10T09:42:36.916Z,14.00
2019-04-10T09:45:06.427Z,14.00
2019-04-10T09:47:34.918Z,14.20
2019-04-10T09:50:04.193Z,14.40
2019-04-10T09:52:32.647Z,14.40
2019-04-10T09:55:01.114Z,14.40
2019-04-10T09:57:29.904Z,14.40
2019-04-10T09:59:58.354Z,14.50
2019-04-10T10:02:27.456Z,14.80
2019-04-10T10:04:56.426Z,14.90
2019-04-10T10:07:24.856Z,15.10
2019-04-10T10:09:53.324Z,15.40
2019-04-10T10:12:21.767Z,15.40
2019-04-10T10:14:50.249Z,15.60
2019-04-10T10:17:18.704Z,15.90
2019-04-10T10:19:48.070Z,16.20
2019-04-10T10:22:16.906Z,16.30
2019-04-10T10:24:46.808Z,16.50
2019-04-10T10:27:15.684Z,16.20
2019-04-10T10:29:44.395Z,16.00
2019-04-10T10:32:12.928Z,16.00
2019-04-10T10:34:41.375Z,15.90
2019-04-10T10:37:10.752Z,15.70
2019-04-10T10:39:39.232Z,15.70
2019-04-10T10:42:07.826Z,15.50
2019-04-10T10:44:36.320Z,15.50
2019-04-10T10:47:06.201Z,15.50
2019-04-10T10:49:34.847Z,15.60
2019-04-10T10:52:12.315Z,15.80
2019-04-10T10:54:41.146Z,16.00
2019-04-10T10:57:10.934Z,15.90
2019-04-10T10:59:39.836Z,15.80
2019-04-10T11:02:08.717Z,15.80
2019-04-10T11:04:37.852Z,16.10
2019-04-10T11:07:06.992Z,16.30
2019-04-10T11:09:36.765Z,16.30
2019-04-10T11:12:16.491Z,16.20
2019-04-10T11:14:45.584Z,16.00
2019-04-10T11:17:14.242Z,15.50
2019-04-10T11:19:43.420Z,15.10
2019-04-10T11:22:14.419Z,14.80
2019-04-10T11:24:44.493Z,14.70
2019-04-10T11:27:14.315Z,14.60
2019-04-10T11:29:45.270Z,14.50
2019-04-10T11:32:16.344Z,14.60
2019-04-10T11:34:56.650Z,14.70
2019-04-10T11:39:56.576Z,14.50
2019-04-10T11:42:26.415Z,14.60
2019-04-10T11:44:55.502Z,14.70
2019-04-10T11:47:25.240Z,14.70
2019-04-10T11:49:57.186Z,14.70
2019-04-10T11:52:33.754Z,14.70
2019-04-10T11:55:05.106Z,14.80
2019-04-10T11:57:26.426Z,15.00
2019-04-10T11:59:56.944Z,15.20
2019-04-10T12:02:28.186Z,15.50
2019-04-10T12:07:58.477Z,15.70
2019-04-10T12:12:28.047Z,15.90
2019-04-10T12:14:57.892Z,15.90
2019-04-10T12:17:27.612Z,16.00
2019-04-10T12:20:09.625Z,16.20
2019-04-10T12:22:48.080Z,16.70
2019-04-10T12:25:16.858Z,17.00
2019-04-10T12:27:45.398Z,17.10
2019-04-10T12:30:15.182Z,17.50
2019-04-10T12:32:45.897Z,18.00
2019-04-10T12:35:15.044Z,18.20
2019-04-10T12:37:59.400Z,18.50
2019-04-10T12:40:21.534Z,18.60
2019-04-10T12:42:50.412Z,19.00
2019-04-10T12:45:20.031Z,19.50
2019-04-10T12:47:48.583Z,19.60
2019-04-10T12:50:17.064Z,19.80
2019-04-10T12:52:45.528Z,20.00
2019-04-10T12:55:14.477Z,20.10
2019-04-10T12:57:43.505Z,20.00
2019-04-10T13:00:16.000Z,20.00
2019-04-10T13:02:44.868Z,20.00
2019-04-10T13:05:13.836Z,20.10
2019-04-10T13:07:43.481Z,20.10
2019-04-10T13:10:12.832Z,20.00
2019-04-10T13:12:41.770Z,20.20
2019-04-10T13:15:11.583Z,20.60
2019-04-10T13:17:40.734Z,21.10
2019-04-10T13:20:11.661Z,21.80
2019-04-10T13:22:40.265Z,22.30
2019-04-10T13:25:09.940Z,22.60
2019-04-10T13:27:39.483Z,22.90
2019-04-10T13:30:12.914Z,23.00
2019-04-10T13:32:42.438Z,23.30
2019-04-10T13:35:11.453Z,23.20
2019-04-10T13:37:41.299Z,23.40
2019-04-10T13:40:11.247Z,23.80
2019-04-10T13:42:41.068Z,23.80
2019-04-10T13:45:11.062Z,23.80
2019-04-10T13:47:40.778Z,23.80
2019-04-10T13:50:10.653Z,23.30
2019-04-10T13:52:40.931Z,22.70
2019-04-10T13:55:18.948Z,22.20
2019-04-10T13:57:47.721Z,21.90
2019-04-10T14:00:39.850Z,21.70
2019-04-10T14:03:06.923Z,21.40
2019-04-10T14:05:35.470Z,20.80
2019-04-10T14:08:04.868Z,20.40
2019-04-10T14:10:35.190Z,20.00
2019-04-10T14:13:03.805Z,20.00
2019-04-10T14:15:33.721Z,20.20
2019-04-10T14:18:02.426Z,20.60
2019-04-10T14:20:31.248Z,21.00
2019-04-10T14:23:16.751Z,21.00
2019-04-10T14:26:02.270Z,21.20
2019-04-10T14:28:33.343Z,21.70
2019-04-10T14:31:04.208Z,22.50
2019-04-10T14:33:33.075Z,23.20
2019-04-10T14:36:01.973Z,23.60
2019-04-10T14:38:30.774Z,24.30
2019-04-10T14:40:59.531Z,24.80
2019-04-10T14:43:28.443Z,25.10
2019-04-10T14:45:57.647Z,25.40
2019-04-10T14:48:26.229Z,25.70
2019-04-10T14:50:54.729Z,25.70
2019-04-10T14:53:23.266Z,25.70
2019-04-10T14:55:51.737Z,25.90
2019-04-10T14:58:25.178Z,25.90
2019-04-10T15:00:50.976Z,26.10
2019-04-10T15:03:22.362Z,26.00
2019-04-10T15:05:53.955Z,25.30
2019-04-10T15:08:21.775Z,24.60
2019-04-10T15:10:50.590Z,24.20
2019-04-10T15:13:21.257Z,24.00
2019-04-10T15:15:50.289Z,24.10
2019-04-10T15:18:19.109Z,24.50
2019-04-10T15:20:47.729Z,24.70
2019-04-10T15:23:16.182Z,24.70
2019-04-10T15:25:44.636Z,24.50
2019-04-10T15:28:13.968Z,24.10
2019-04-10T15:30:42.806Z,23.70
2019-04-10T15:33:12.137Z,23.30
2019-04-10T15:35:41.811Z,22.70
2019-04-10T15:38:11.617Z,21.80
2019-04-10T15:40:42.009Z,21.00
2019-04-10T15:43:10.816Z,20.40
2019-04-10T15:45:39.966Z,19.90
2019-04-10T15:48:08.772Z,19.70
2019-04-10T15:50:37.255Z,19.50
2019-04-10T15:53:06.170Z,18.90
2019-04-10T15:55:34.728Z,18.20
2019-04-10T15:58:04.057Z,17.80
2019-04-10T16:00:34.976Z,17.50
2019-04-10T16:03:04.874Z,17.20
2019-04-10T16:05:33.485Z,16.90
2019-04-10T16:08:02.990Z,16.60
2019-04-10T16:10:33.946Z,16.40
2019-04-10T16:13:16.515Z,16.20
2019-04-10T16:15:45.207Z,15.90
2019-04-10T16:18:15.638Z,15.60
2019-04-10T16:20:45.883Z,15.60
2019-04-10T16:23:18.944Z,15.50
2019-04-10T16:25:54.459Z,15.50
2019-04-10T16:28:23.350Z,15.50
2019-04-10T16:30:51.817Z,15.30
2019-04-10T16:33:20.288Z,15.30
2019-04-10T16:35:48.790Z,15.20
2019-04-10T16:38:17.348Z,15.00
2019-04-10T16:40:45.992Z,14.90
2019-04-10T16:43:15.903Z,14.80
2019-04-10T16:45:44.465Z,14.80
2019-04-10T16:48:13.462Z,14.60
2019-04-10T16:50:41.925Z,14.50
2019-04-10T16:53:11.636Z,14.40
2019-04-10T16:55:41.027Z,14.30
2019-04-10T16:58:09.794Z,14.30
2019-04-10T17:00:39.598Z,14.10
2019-04-10T17:03:09.326Z,14.00
2019-04-10T17:05:39.660Z,13.90
2019-04-10T17:08:09.562Z,13.70
2019-04-10T17:10:38.707Z,13.70
2019-04-10T17:13:08.835Z,13.70
2019-04-10T17:15:37.566Z,13.60
2019-04-10T17:18:06.644Z,13.50
2019-04-10T17:20:36.215Z,13.50
2019-04-10T17:23:06.413Z,13.50
2019-04-10T17:25:35.938Z,13.40
2019-04-10T17:28:04.503Z,13.30
2019-04-10T17:30:33.853Z,13.30
2019-04-10T17:33:13.168Z,13.30
2019-04-10T17:35:43.355Z,13.30
2019-04-10T17:38:12.146Z,13.30
2019-04-10T17:40:48.226Z,13.20
2019-04-10T17:43:11.113Z,13.10
2019-04-10T17:45:39.601Z,13.00
2019-04-10T17:48:09.389Z,12.90
2019-04-10T17:50:39.358Z,12.90
2019-04-10T17:53:15.221Z,12.90
2019-04-10T17:55:44.689Z,12.90
2019-04-10T17:58:13.653Z,12.80
2019-04-10T18:01:25.036Z,12.70
2019-04-10T18:03:57.178Z,12.70
2019-04-10T18:06:27.681Z,12.70
2019-04-10T18:08:57.046Z,12.70
2019-04-10T18:11:25.596Z,12.70
2019-04-10T18:13:55.351Z,12.70
2019-04-10T18:16:23.817Z,12.70
2019-04-10T18:18:52.233Z,12.70
2019-04-10T18:21:20.659Z,12.70
2019-04-10T18:23:49.537Z,12.70
2019-04-10T18:26:28.586Z,12.70
2019-04-10T18:28:59.454Z,12.50
2019-04-10T18:31:29.470Z,12.40
2019-04-10T18:33:58.706Z,12.40
2019-04-10T18:36:27.916Z,12.30
2019-04-10T18:38:56.332Z,12.20
2019-04-10T18:41:24.763Z,12.10
2019-04-10T18:43:53.174Z,12.10
2019-04-10T18:46:22.427Z,12.10
2019-04-10T18:48:51.386Z,12.20
2019-04-10T18:51:19.949Z,12.20
2019-04-10T18:53:51.158Z,12.10
2019-04-10T18:56:20.805Z,12.10
2019-04-10T18:58:54.970Z,12.10
2019-04-10T19:01:31.417Z,12.00
2019-04-10T19:04:04.536Z,11.90
2019-04-10T19:06:49.713Z,11.80
2019-04-10T19:09:24.569Z,11.80
2019-04-10T19:11:54.800Z,11.80
2019-04-10T19:14:24.663Z,11.70
2019-04-10T19:16:55.150Z,11.70
2019-04-10T19:19:28.291Z,11.70
2019-04-10T19:22:00.056Z,11.50
2019-04-10T19:24:32.396Z,11.40
2019-04-10T19:27:02.135Z,11.30
2019-04-10T19:29:35.717Z,11.30
2019-04-10T19:32:06.269Z,11.30
2019-04-10T19:34:45.819Z,11.30
2019-04-10T19:37:14.603Z,11.20
2019-04-10T19:39:44.798Z,11.10
2019-04-10T19:42:15.339Z,11.10
2019-04-10T19:44:45.578Z,11.00
2019-04-10T19:47:14.765Z,10.90
2019-04-10T19:49:44.556Z,10.80
2019-04-10T19:52:14.311Z,10.60
2019-04-10T19:54:44.250Z,10.40
2019-04-10T19:57:15.334Z,10.30
2019-04-10T19:59:46.041Z,10.30
2019-04-10T20:02:19.056Z,10.20
2019-04-10T20:04:48.614Z,10.20
2019-04-10T20:07:17.297Z,10.20
2019-04-10T20:09:46.441Z,10.10
2019-04-10T20:12:16.063Z,10.00
2019-04-10T20:14:44.803Z,10.00
2019-04-10T20:17:13.558Z,10.00
2019-04-10T20:19:42.590Z,9.90
2019-04-10T20:22:11.206Z,9.90
2019-04-10T20:24:39.617Z,9.80
2019-04-10T20:27:09.921Z,9.80
2019-04-10T20:29:39.331Z,9.70
2019-04-10T20:32:07.965Z,9.60
2019-04-10T20:34:37.783Z,9.60
2019-04-10T20:37:09.593Z,9.50
2019-04-10T20:39:39.252Z,9.50
2019-04-10T20:42:07.822Z,9.50
2019-04-10T20:44:36.636Z,9.40
2019-04-10T20:47:05.104Z,9.30
2019-04-10T20:49:34.251Z,9.30
2019-04-10T20:52:04.142Z,9.20
2019-04-10T20:54:42.724Z,9.20
2019-04-10T20:57:11.157Z,9.10
2019-04-10T20:59:40.437Z,9.00
2019-04-10T21:02:09.722Z,8.90
2019-04-10T21:04:39.536Z,8.80
2019-04-10T21:07:08.449Z,8.60
2019-04-10T21:09:36.897Z,8.50
2019-04-10T21:12:10.473Z,8.50
2019-04-10T21:14:35.926Z,8.50
2019-04-10T21:17:04.824Z,8.40
2019-04-10T21:19:33.499Z,8.30
2019-04-10T21:22:02.069Z,8.20
2019-04-10T21:24:31.474Z,8.20
2019-04-10T21:27:01.219Z,8.10
2019-04-10T21:29:32.024Z,8.00
2019-04-10T21:32:05.188Z,8.00
2019-04-10T21:34:36.919Z,8.00
2019-04-10T21:37:06.097Z,8.00
2019-04-10T21:39:35.974Z,8.00
2019-04-10T21:42:14.823Z,8.00
2019-04-10T21:44:35.136Z,7.90
2019-04-10T21:47:03.893Z,7.90
2019-04-10T21:49:32.416Z,7.90
2019-04-10T21:52:02.077Z,7.90
2019-04-10T21:54:31.374Z,7.80
2019-04-10T21:56:59.912Z,7.80
2019-04-10T21:59:28.993Z,7.80
2019-04-10T22:01:57.581Z,7.70
2019-04-10T22:04:27.270Z,7.70
2019-04-10T22:07:10.024Z,7.60
2019-04-10T22:09:43.257Z,7.50
2019-04-10T22:12:24.014Z,7.40
2019-04-10T22:14:43.913Z,7.30
2019-04-10T22:17:13.131Z,7.30
2019-04-10T22:19:43.000Z,7.30
2019-04-10T22:22:12.803Z,7.20
2019-04-10T22:24:42.653Z,7.20
2019-04-10T22:27:11.968Z,7.10
2019-04-10T22:29:40.454Z,7.10
2019-04-10T22:32:08.998Z,7.00
2019-04-10T22:34:38.401Z,7.00
2019-04-10T22:37:07.264Z,6.90
2019-04-10T22:39:35.924Z,6.90
2019-04-10T22:42:05.359Z,6.80
2019-04-10T22:44:40.219Z,6.80
2019-04-10T22:47:05.097Z,6.80
2019-04-10T22:49:34.874Z,6.70
2019-04-10T22:52:04.614Z,6.70
2019-04-10T22:54:33.200Z,6.70
2019-04-10T22:57:02.607Z,6.60
2019-04-10T22:59:32.446Z,6.60
2019-04-10T23:02:07.390Z,6.60
2019-04-10T23:04:32.573Z,6.60
2019-04-10T23:07:01.760Z,6.50
2019-04-10T23:09:30.590Z,6.50
2019-04-10T23:12:00.195Z,6.50
2019-04-10T23:14:29.018Z,6.50
2019-04-10T23:16:57.742Z,6.50
2019-04-10T23:19:26.227Z,6.50
2019-04-10T23:21:54.701Z,6.40
2019-04-10T23:24:23.519Z,6.40
2019-04-10T23:26:51.939Z,6.40
2019-04-10T23:29:20.386Z,6.40
2019-04-10T23:31:49.792Z,6.40
2019-04-10T23:34:18.880Z,6.40
2019-04-10T23:36:48.636Z,6.30
2019-04-10T23:39:18.260Z,6.30
2019-04-10T23:41:47.649Z,6.30
2019-04-10T23:44:16.844Z,6.20
2019-04-10T23:46:45.465Z,6.20
2019-04-10T23:49:14.130Z,6.20
2019-04-10T23:51:43.283Z,6.20
2019-04-10T23:54:13.149Z,6.10
2019-04-10T23:56:41.978Z,6.10
2019-04-10T23:59:10.733Z,6.00
